Skip Navigation Links Skip Navigation Links

Current Weather

Williamson County Regional, Marion, Ill.

For information only: do not use for flight planning or navigation.
Latest weather
Observation time Thursday, January 27, 2022 11:15 PM CST
Local time Thursday, January 27, 2022 11:29 PM CST
Flight conditions Visual Meteorological Conditions
Winds
Wind direction Northwest (310°)
Wind speed 3 mph
Visibility 10 mi.
Sky condition
Ceiling 3,100 ft. broken clouds
Cloud layer broken clouds 3,100 ft.
Cloud layer overcast 4,800 ft.
Temperature 33°F
Dewpoint 24°F
Altimeter 30.27 in.Hg
Derived measurements
Relative humidity 69%
Wind chill 30°F
Density altitude -1604 ft.
Remarks
Fully automated report.
Automated weather observing station with precipitation discriminator.
METAR KMWA 280515Z AUTO 31003KT 10SM BKN031 OVC048 01/M04 A3027 RMK AO2 T00071044

Settings

Location code

InnerDrive.Weather 4.0.6770.0 Release CLR 4.0.30319.42000
Copyright ©2018 Inner Drive Technology. All rights reserved. Portions Copyright ©1986-2018 David Braverman.

Find weather

Site navigation


Skip Navigation Links

Place info

Page info

PayPal - The safer, easier way to pay online!

Return home.

Copyright ©2022 Inner Drive Technology. Purveyors of fine, hand-crafted computer software. Page printed 2022-01-28T05:29:24 UTC.